createdAt,value
2018-07-01T00:00:14.839Z,50.20
2018-07-01T00:02:43.136Z,50.50
2018-07-01T00:05:11.813Z,50.70
2018-07-01T00:07:39.970Z,50.90
2018-07-01T00:10:09.075Z,51.30
2018-07-01T00:12:37.601Z,51.50
2018-07-01T00:15:06.061Z,51.70
2018-07-01T00:17:34.272Z,52.10
2018-07-01T00:20:02.465Z,52.30
2018-07-01T00:22:30.641Z,52.90
2018-07-01T00:24:58.832Z,53.20
2018-07-01T00:27:26.981Z,53.60
2018-07-01T00:29:55.421Z,54.10
2018-07-01T00:32:23.569Z,54.70
2018-07-01T00:34:51.734Z,54.60
2018-07-01T00:37:19.895Z,54.60
2018-07-01T00:39:48.061Z,54.70
2018-07-01T00:42:16.235Z,55.10
2018-07-01T00:44:44.441Z,55.50
2018-07-01T00:47:12.576Z,55.30
2018-07-01T00:49:40.732Z,55.50
2018-07-01T00:52:09.006Z,56.00
2018-07-01T00:54:37.159Z,56.20
2018-07-01T00:57:05.379Z,56.30
2018-07-01T00:59:33.551Z,56.30
2018-07-01T01:02:01.682Z,56.50
2018-07-01T01:04:29.882Z,56.80
2018-07-01T01:06:58.006Z,56.80
2018-07-01T01:09:26.146Z,56.20
2018-07-01T01:11:54.320Z,56.10
2018-07-01T01:14:22.471Z,56.20
2018-07-01T01:16:50.696Z,56.40
2018-07-01T01:19:18.939Z,56.80
2018-07-01T01:21:47.110Z,56.20
2018-07-01T01:24:18.838Z,55.90
2018-07-01T01:26:47.084Z,56.30
2018-07-01T01:29:15.382Z,57.00
2018-07-01T01:31:43.539Z,56.80
2018-07-01T01:34:11.674Z,56.40
2018-07-01T01:36:40.954Z,56.40
2018-07-01T01:39:14.019Z,56.40
2018-07-01T01:42:18.502Z,56.30
2018-07-01T01:44:50.179Z,56.30
2018-07-01T01:47:35.011Z,56.00
2018-07-01T01:50:08.470Z,55.30
2018-07-01T01:52:44.976Z,55.10
2018-07-01T01:55:49.481Z,54.90
2018-07-01T01:58:37.014Z,55.20
2018-07-01T02:01:11.535Z,55.60
2018-07-01T02:03:54.273Z,55.60
2018-07-01T02:06:27.366Z,55.70
2018-07-01T02:09:00.530Z,55.50
2018-07-01T02:11:29.861Z,55.60
2018-07-01T02:14:01.248Z,55.80
2018-07-01T02:16:40.643Z,56.30
2018-07-01T02:19:08.847Z,57.10
2018-07-01T02:21:37.062Z,57.30
2018-07-01T02:24:08.425Z,57.50
2018-07-01T02:26:36.564Z,57.40
2018-07-01T02:29:04.729Z,57.10
2018-07-01T02:31:32.891Z,57.40
2018-07-01T02:34:01.039Z,58.10
2018-07-01T02:36:29.197Z,58.60
2018-07-01T02:38:57.488Z,59.20
2018-07-01T02:41:25.633Z,60.10
2018-07-01T02:43:54.027Z,60.30
2018-07-01T02:46:22.187Z,60.70
2018-07-01T02:48:50.362Z,59.80
2018-07-01T02:51:18.498Z,59.30
2018-07-01T02:53:48.792Z,59.10
2018-07-01T02:56:16.846Z,58.80
2018-07-01T02:58:45.031Z,58.90
2018-07-01T03:01:13.198Z,58.80
2018-07-01T03:03:41.419Z,59.30
2018-07-01T03:06:09.581Z,59.50
2018-07-01T03:08:37.731Z,59.50
2018-07-01T03:11:05.891Z,60.10
2018-07-01T03:13:34.030Z,60.70
2018-07-01T03:16:02.148Z,61.10
2018-07-01T03:18:30.384Z,60.20
2018-07-01T03:20:58.513Z,59.80
2018-07-01T03:23:26.659Z,60.20
2018-07-01T03:25:54.819Z,60.90
2018-07-01T03:28:22.950Z,61.50
2018-07-01T03:30:51.147Z,61.90
2018-07-01T03:33:19.293Z,62.20
2018-07-01T03:35:47.504Z,62.70
2018-07-01T03:38:15.686Z,63.90
2018-07-01T03:40:43.895Z,65.20
2018-07-01T03:43:14.311Z,65.10
2018-07-01T03:45:42.450Z,64.10
2018-07-01T03:48:10.643Z,63.80
2018-07-01T03:50:38.776Z,63.80
2018-07-01T03:53:06.907Z,64.00
2018-07-01T03:55:35.041Z,63.70
2018-07-01T03:58:03.183Z,63.60
2018-07-01T04:00:31.360Z,63.90
2018-07-01T04:02:59.671Z,64.80
2018-07-01T04:05:27.839Z,65.70
2018-07-01T04:07:56.020Z,66.30
2018-07-01T04:10:24.235Z,66.90
2018-07-01T04:12:52.389Z,67.80
2018-07-01T04:15:20.560Z,67.90
2018-07-01T04:17:48.701Z,67.80
2018-07-01T04:20:17.012Z,67.80
2018-07-01T04:22:45.145Z,67.60
2018-07-01T04:25:13.274Z,68.10
2018-07-01T04:27:41.699Z,68.90
2018-07-01T04:30:09.821Z,68.80
2018-07-01T04:32:37.954Z,68.40
2018-07-01T04:35:06.282Z,68.30
2018-07-01T04:37:34.444Z,68.40
2018-07-01T04:40:02.617Z,67.40
2018-07-01T04:42:30.741Z,66.80
2018-07-01T04:44:58.915Z,65.20
2018-07-01T04:47:28.101Z,64.30
2018-07-01T04:49:56.234Z,64.30
2018-07-01T04:52:24.622Z,62.20
2018-07-01T04:54:52.745Z,62.40
2018-07-01T04:57:20.918Z,61.80
2018-07-01T04:59:49.083Z,60.00
2018-07-01T05:02:17.286Z,59.80
2018-07-01T05:04:45.443Z,59.70
2018-07-01T05:07:13.619Z,58.80
2018-07-01T05:09:41.794Z,58.50
2018-07-01T05:12:10.875Z,57.70
2018-07-01T05:14:39.118Z,57.40
2018-07-01T05:17:07.298Z,57.40
2018-07-01T05:19:35.459Z,57.50
2018-07-01T05:22:03.634Z,57.50
2018-07-01T05:24:31.818Z,56.90
2018-07-01T05:26:59.998Z,56.10
2018-07-01T05:29:28.150Z,55.70
2018-07-01T05:31:56.415Z,55.80
2018-07-01T05:34:24.552Z,55.10
2018-07-01T05:36:52.677Z,55.10
2018-07-01T05:39:20.837Z,55.30
2018-07-01T05:41:49.058Z,54.80
2018-07-01T05:44:17.210Z,54.70
2018-07-01T05:46:45.399Z,54.40
2018-07-01T05:49:13.576Z,53.70
2018-07-01T05:51:41.779Z,53.40
2018-07-01T05:54:09.893Z,53.60
2018-07-01T05:56:38.167Z,53.10
2018-07-01T05:59:06.336Z,53.20
2018-07-01T06:01:34.479Z,52.60
2018-07-01T06:04:02.626Z,52.40
2018-07-01T06:06:30.899Z,52.60
2018-07-01T06:08:59.044Z,53.20
2018-07-01T06:11:27.235Z,52.50
2018-07-01T06:13:55.408Z,51.20
2018-07-01T06:16:23.927Z,51.70
2018-07-01T06:18:52.040Z,51.00
2018-07-01T06:21:20.195Z,50.30
2018-07-01T06:23:48.373Z,50.20
2018-07-01T06:26:17.016Z,50.20
2018-07-01T06:28:45.434Z,50.00
2018-07-01T06:31:13.576Z,50.20
2018-07-01T06:33:41.863Z,50.50
2018-07-01T06:36:10.615Z,50.70
2018-07-01T06:38:38.750Z,49.40
2018-07-01T06:41:06.940Z,48.80
2018-07-01T06:43:35.337Z,49.00
2018-07-01T06:46:03.552Z,48.90
2018-07-01T06:48:31.688Z,48.60
2018-07-01T06:50:59.824Z,48.30
2018-07-01T06:53:27.955Z,47.90
2018-07-01T06:55:56.193Z,47.20
2018-07-01T06:58:24.342Z,45.30
2018-07-01T07:00:52.486Z,43.70
2018-07-01T07:03:20.944Z,42.90
2018-07-01T07:05:49.116Z,41.90
2018-07-01T07:08:17.356Z,41.60
2018-07-01T07:10:45.524Z,41.00
2018-07-01T07:13:13.835Z,40.10
2018-07-01T07:15:42.013Z,39.80
2018-07-01T07:18:10.293Z,38.70
2018-07-01T07:20:38.560Z,38.20
2018-07-01T07:23:06.973Z,38.70
2018-07-01T07:25:35.124Z,38.20
2018-07-01T07:28:03.269Z,38.00
2018-07-01T07:30:31.589Z,38.20
2018-07-01T07:32:59.772Z,37.70
2018-07-01T07:35:27.939Z,37.10
2018-07-01T07:37:56.138Z,35.90
2018-07-01T07:40:24.399Z,36.20
2018-07-01T07:42:52.552Z,35.40
2018-07-01T07:45:31.041Z,35.20
2018-07-01T07:48:00.200Z,35.30
2018-07-01T07:50:28.353Z,34.70
2018-07-01T07:52:56.688Z,35.40
2018-07-01T07:55:25.128Z,34.90
2018-07-01T07:57:53.332Z,35.00
2018-07-01T08:00:21.484Z,35.50
2018-07-01T08:02:49.780Z,35.10
2018-07-01T08:05:17.945Z,34.50
2018-07-01T08:07:46.182Z,35.20
2018-07-01T08:10:14.366Z,34.90
2018-07-01T08:12:42.542Z,34.10
2018-07-01T08:15:10.682Z,34.90
2018-07-01T08:17:39.005Z,34.50
2018-07-01T08:20:07.226Z,34.80
2018-07-01T08:22:35.448Z,34.90
2018-07-01T08:25:03.691Z,34.20
2018-07-01T08:27:31.893Z,34.00
2018-07-01T08:30:00.175Z,34.80
2018-07-01T08:32:28.464Z,35.20
2018-07-01T08:34:56.669Z,34.00
2018-07-01T08:37:24.833Z,33.70
2018-07-01T08:39:53.162Z,34.30
2018-07-01T08:42:23.339Z,33.60
2018-07-01T08:44:52.531Z,33.60
2018-07-01T08:47:20.790Z,34.20
2018-07-01T08:49:48.963Z,33.90
2018-07-01T08:52:17.237Z,33.50
2018-07-01T08:54:46.784Z,33.60
2018-07-01T08:57:16.020Z,32.90
2018-07-01T08:59:45.579Z,32.60
2018-07-01T09:02:13.898Z,33.10
2018-07-01T09:04:43.038Z,32.90
2018-07-01T09:07:11.340Z,32.40
2018-07-01T09:09:39.617Z,32.50
2018-07-01T09:12:12.304Z,32.80
2018-07-01T09:14:40.565Z,33.40
2018-07-01T09:17:09.184Z,32.90
2018-07-01T09:19:39.008Z,33.00
2018-07-01T09:22:07.321Z,32.60
2018-07-01T09:28:06.433Z,32.50
2018-07-01T09:30:35.382Z,33.10
2018-07-01T09:33:03.748Z,32.80
2018-07-01T09:35:32.681Z,31.90
2018-07-01T09:38:01.442Z,32.10
2018-07-01T09:40:29.609Z,32.20
2018-07-01T09:42:57.759Z,33.00
2018-07-01T09:45:26.193Z,32.70
2018-07-01T09:47:54.380Z,32.50
2018-07-01T09:50:22.649Z,31.20
2018-07-01T09:52:50.732Z,32.60
2018-07-01T09:55:19.037Z,30.90
2018-07-01T09:57:47.244Z,30.90
2018-07-01T10:00:15.536Z,30.50
2018-07-01T10:02:43.765Z,30.40
2018-07-01T10:05:11.938Z,31.40
2018-07-01T10:07:40.526Z,31.50
2018-07-01T10:10:08.725Z,31.00
2018-07-01T10:12:36.889Z,31.10
2018-07-01T10:15:05.326Z,30.80
2018-07-01T10:17:33.505Z,31.00
2018-07-01T10:20:01.669Z,30.00
2018-07-01T10:22:29.892Z,29.90
2018-07-01T10:25:00.053Z,30.20
2018-07-01T10:27:28.200Z,31.30
2018-07-01T10:29:56.409Z,29.80
2018-07-01T10:32:24.651Z,29.80
2018-07-01T10:34:52.755Z,30.20
2018-07-01T10:37:20.911Z,30.30
2018-07-01T10:39:49.187Z,30.00
2018-07-01T10:42:17.372Z,30.90
2018-07-01T10:44:45.621Z,29.50
2018-07-01T10:47:13.931Z,29.60
2018-07-01T10:49:42.093Z,29.20
2018-07-01T10:52:10.276Z,29.40
2018-07-01T10:54:38.448Z,29.30
2018-07-01T10:57:06.719Z,29.20
2018-07-01T10:59:34.892Z,29.90
2018-07-01T11:02:03.114Z,28.50
2018-07-01T11:04:31.899Z,28.70
2018-07-01T11:07:00.178Z,29.20
2018-07-01T11:09:28.364Z,28.70
2018-07-01T11:11:56.592Z,29.00
2018-07-01T11:14:24.738Z,28.40
2018-07-01T11:16:52.871Z,28.50
2018-07-01T11:19:21.238Z,28.70
2018-07-01T11:21:49.424Z,28.90
2018-07-01T11:24:17.567Z,28.90
2018-07-01T11:26:45.870Z,29.20
2018-07-01T11:29:13.948Z,28.90
2018-07-01T11:31:42.188Z,29.20
2018-07-01T11:34:10.366Z,28.10
2018-07-01T11:36:38.573Z,28.50
2018-07-01T11:39:08.426Z,29.90
2018-07-01T11:41:36.736Z,28.90
2018-07-01T11:44:04.945Z,28.70
2018-07-01T11:46:33.199Z,28.60
2018-07-01T11:49:01.357Z,28.60
2018-07-01T11:51:29.621Z,28.30
2018-07-01T11:53:57.801Z,28.90
2018-07-01T11:56:26.086Z,28.90
2018-07-01T11:58:54.400Z,28.60
2018-07-01T12:01:22.655Z,28.70
2018-07-01T12:03:50.836Z,28.70
2018-07-01T12:06:19.023Z,28.80
2018-07-01T12:08:47.208Z,28.70
2018-07-01T12:11:15.515Z,28.50
2018-07-01T12:13:43.793Z,28.60
2018-07-01T12:16:12.101Z,29.30
2018-07-01T12:18:40.547Z,28.90
2018-07-01T12:21:09.704Z,28.50
2018-07-01T12:23:37.944Z,28.20
2018-07-01T12:26:06.303Z,28.00
2018-07-01T12:28:34.608Z,27.40
2018-07-01T12:31:03.048Z,27.30
2018-07-01T12:33:31.411Z,27.50
2018-07-01T12:35:59.590Z,28.30
2018-07-01T12:38:27.816Z,28.70
2018-07-01T12:40:55.971Z,28.80
2018-07-01T12:43:24.277Z,27.50
2018-07-01T12:45:52.466Z,27.70
2018-07-01T12:48:20.695Z,27.20
2018-07-01T12:50:48.869Z,27.30
2018-07-01T12:53:17.015Z,27.50
2018-07-01T12:55:45.277Z,27.40
2018-07-01T12:58:13.847Z,27.50
2018-07-01T13:00:42.013Z,27.20
2018-07-01T13:03:10.170Z,28.50
2018-07-01T13:05:38.334Z,27.60
2018-07-01T13:08:06.495Z,29.00
2018-07-01T13:10:34.644Z,27.40
2018-07-01T13:13:02.809Z,26.80
2018-07-01T13:15:31.112Z,26.70
2018-07-01T13:17:59.441Z,27.30
2018-07-01T13:20:27.906Z,27.10
2018-07-01T13:22:56.060Z,26.90
2018-07-01T13:25:24.260Z,27.00
2018-07-01T13:27:52.457Z,27.30
2018-07-01T13:30:20.616Z,27.30
2018-07-01T13:32:48.767Z,26.80
2018-07-01T13:35:16.929Z,26.60
2018-07-01T13:37:45.088Z,26.50
2018-07-01T13:40:13.228Z,26.70
2018-07-01T13:42:41.447Z,26.60
2018-07-01T13:45:10.130Z,26.60
2018-07-01T13:47:38.535Z,26.00
2018-07-01T13:50:06.898Z,25.80
2018-07-01T13:52:35.297Z,25.80
2018-07-01T13:55:03.625Z,25.30
2018-07-01T13:57:31.806Z,25.10
2018-07-01T14:00:00.113Z,25.10
2018-07-01T14:02:28.665Z,25.30
2018-07-01T14:04:57.001Z,25.50
2018-07-01T14:09:57.967Z,25.30
2018-07-01T14:12:26.509Z,25.00
2018-07-01T14:14:54.956Z,25.10
2018-07-01T14:17:23.244Z,24.90
2018-07-01T14:19:51.558Z,25.40
2018-07-01T14:22:20.043Z,24.70
2018-07-01T14:24:48.327Z,24.60
2018-07-01T14:27:16.638Z,24.70
2018-07-01T14:29:44.864Z,25.10
2018-07-01T14:32:13.028Z,24.90
2018-07-01T14:34:41.247Z,24.90
2018-07-01T14:37:09.525Z,24.50
2018-07-01T14:39:37.775Z,24.40
2018-07-01T14:42:06.151Z,24.60
2018-07-01T14:44:34.375Z,24.80
2018-07-01T14:47:02.555Z,24.80
2018-07-01T14:49:30.948Z,24.80
2018-07-01T14:51:59.252Z,25.00
2018-07-01T14:54:27.507Z,24.40
2018-07-01T14:56:55.874Z,24.60
2018-07-01T14:59:24.081Z,24.70
2018-07-01T15:01:52.328Z,24.60
2018-07-01T15:04:20.626Z,24.40
2018-07-01T15:06:49.641Z,25.00
2018-07-01T15:09:17.851Z,25.00
2018-07-01T15:11:46.149Z,24.40
2018-07-01T15:14:14.361Z,24.90
2018-07-01T15:16:42.619Z,25.40
2018-07-01T15:19:10.921Z,24.70
2018-07-01T15:21:39.137Z,24.60
2018-07-01T15:24:07.314Z,24.80
2018-07-01T15:26:35.484Z,24.90
2018-07-01T15:29:03.732Z,24.80
2018-07-01T15:31:32.207Z,24.90
2018-07-01T15:34:00.581Z,24.80
2018-07-01T15:36:28.768Z,24.80
2018-07-01T15:38:57.224Z,24.80
2018-07-01T15:41:25.432Z,24.70
2018-07-01T15:43:53.666Z,24.50
2018-07-01T15:46:21.835Z,24.50
2018-07-01T15:48:50.020Z,24.70
2018-07-01T15:51:18.200Z,25.30
2018-07-01T15:53:46.344Z,24.70
2018-07-01T15:56:14.903Z,24.30
2018-07-01T15:58:43.208Z,24.20
2018-07-01T16:01:11.385Z,24.50
2018-07-01T16:03:39.826Z,24.70
2018-07-01T16:06:08.169Z,24.80
2018-07-01T16:08:36.516Z,24.50
2018-07-01T16:11:04.731Z,24.20
2018-07-01T16:13:39.402Z,24.40
2018-07-01T16:16:07.526Z,24.40
2018-07-01T16:18:35.680Z,24.60
2018-07-01T16:21:03.878Z,24.80
2018-07-01T16:23:32.080Z,24.80
2018-07-01T16:26:05.675Z,25.30
2018-07-01T16:28:39.033Z,24.80
2018-07-01T16:31:07.254Z,24.90
2018-07-01T16:33:35.556Z,24.90
2018-07-01T16:36:03.747Z,25.10
2018-07-01T16:38:32.014Z,26.10
2018-07-01T16:41:00.218Z,26.60
2018-07-01T16:43:28.441Z,27.30
2018-07-01T16:45:56.631Z,27.90
2018-07-01T16:48:24.808Z,28.40
2018-07-01T16:50:53.021Z,28.40
2018-07-01T16:53:27.686Z,28.40
2018-07-01T16:58:23.964Z,28.20
2018-07-01T17:00:52.224Z,27.70
2018-07-01T17:03:20.431Z,27.60
2018-07-01T17:05:48.712Z,27.50
2018-07-01T17:08:16.920Z,27.30
2018-07-01T17:10:45.104Z,27.90
2018-07-01T17:13:13.315Z,26.90
2018-07-01T17:15:41.471Z,27.00
2018-07-01T17:18:09.657Z,26.70
2018-07-01T17:20:37.895Z,27.40
2018-07-01T17:23:06.273Z,28.60
2018-07-01T17:25:38.717Z,29.70
2018-07-01T17:28:06.874Z,31.10
2018-07-01T17:30:35.366Z,31.90
2018-07-01T17:33:09.125Z,32.90
2018-07-01T17:35:37.304Z,33.50
2018-07-01T17:38:05.577Z,34.20
2018-07-01T17:40:33.759Z,34.60
2018-07-01T17:43:01.937Z,35.00
2018-07-01T17:45:30.093Z,35.20
2018-07-01T17:47:58.264Z,35.00
2018-07-01T17:50:26.448Z,34.60
2018-07-01T17:52:54.670Z,35.00
2018-07-01T17:55:22.977Z,35.10
2018-07-01T17:57:51.162Z,34.90
2018-07-01T18:00:19.363Z,35.10
2018-07-01T18:02:47.526Z,34.90
2018-07-01T18:05:15.856Z,35.70
2018-07-01T18:07:44.008Z,35.50
2018-07-01T18:10:12.441Z,35.30
2018-07-01T18:12:40.583Z,35.20
2018-07-01T18:15:08.743Z,35.40
2018-07-01T18:17:37.132Z,35.50
2018-07-01T18:20:05.395Z,35.60
2018-07-01T18:23:00.813Z,35.70
2018-07-01T18:25:08.622Z,36.00
2018-07-01T18:27:34.914Z,35.90
2018-07-01T18:29:58.161Z,36.10
2018-07-01T18:32:26.352Z,37.40
2018-07-01T18:34:54.531Z,36.50
2018-07-01T18:37:22.683Z,36.30
2018-07-01T18:39:51.019Z,36.30
2018-07-01T18:42:19.346Z,36.20
2018-07-01T18:44:47.507Z,36.20
2018-07-01T18:47:15.781Z,36.50
2018-07-01T18:49:43.936Z,36.60
2018-07-01T18:52:12.278Z,36.90
2018-07-01T18:54:40.481Z,37.10
2018-07-01T18:57:08.646Z,37.10
2018-07-01T19:02:04.979Z,37.50
2018-07-01T19:04:33.151Z,37.80
2018-07-01T19:09:29.385Z,38.10
2018-07-01T19:11:58.211Z,38.00
2018-07-01T19:14:26.415Z,37.90
2018-07-01T19:16:54.611Z,38.10
2018-07-01T19:19:22.907Z,38.10
2018-07-01T19:21:51.105Z,38.20
2018-07-01T19:24:19.652Z,38.70
2018-07-01T19:26:48.586Z,38.70
2018-07-01T19:29:16.781Z,38.80
2018-07-01T19:31:45.050Z,38.90
2018-07-01T19:34:13.358Z,39.10
2018-07-01T19:36:41.571Z,39.20
2018-07-01T19:39:10.641Z,39.70
2018-07-01T19:41:38.891Z,39.70
2018-07-01T19:44:07.121Z,40.10
2018-07-01T19:46:35.395Z,40.30
2018-07-01T19:49:03.559Z,40.50
2018-07-01T19:51:32.183Z,41.30
2018-07-01T19:54:00.422Z,42.40
2018-07-01T19:56:28.605Z,42.70
2018-07-01T19:58:56.773Z,43.00
2018-07-01T20:01:25.064Z,43.40
2018-07-01T20:03:53.271Z,43.90
2018-07-01T20:06:21.538Z,44.20
2018-07-01T20:08:49.676Z,44.30
2018-07-01T20:11:17.883Z,44.30
2018-07-01T20:13:46.664Z,44.20
2018-07-01T20:16:14.828Z,44.50
2018-07-01T20:18:43.150Z,44.40
2018-07-01T20:21:11.429Z,44.40
2018-07-01T20:23:39.901Z,44.60
2018-07-01T20:26:08.347Z,45.00
2018-07-01T20:28:36.560Z,45.00
2018-07-01T20:31:04.749Z,45.10
2018-07-01T20:33:33.120Z,45.80
2018-07-01T20:36:01.362Z,45.10
2018-07-01T20:38:29.550Z,44.90
2018-07-01T20:40:57.719Z,45.00
2018-07-01T20:43:25.895Z,44.90
2018-07-01T20:45:54.107Z,45.30
2018-07-01T20:48:22.227Z,45.20
2018-07-01T20:50:50.499Z,45.80
2018-07-01T20:53:18.600Z,45.90
2018-07-01T20:55:46.794Z,45.90
2018-07-01T20:58:15.034Z,45.70
2018-07-01T21:00:43.276Z,46.00
2018-07-01T21:05:39.370Z,46.40
2018-07-01T21:08:07.534Z,46.00
2018-07-01T21:10:35.684Z,46.50
2018-07-01T21:13:03.869Z,46.60
2018-07-01T21:15:32.126Z,46.90
2018-07-01T21:18:00.293Z,46.90
2018-07-01T21:20:28.488Z,47.30
2018-07-01T21:22:56.631Z,47.70
2018-07-01T21:25:24.783Z,47.80
2018-07-01T21:27:52.968Z,48.00
2018-07-01T21:30:21.130Z,47.90
2018-07-01T21:32:49.352Z,48.00
2018-07-01T21:35:17.514Z,48.00
2018-07-01T21:37:45.706Z,48.30
2018-07-01T21:40:13.885Z,48.10
2018-07-01T21:42:42.062Z,48.30
2018-07-01T21:45:10.225Z,49.00
2018-07-01T21:47:38.739Z,49.30
2018-07-01T21:52:35.375Z,49.90
2018-07-01T21:55:03.540Z,50.70
2018-07-01T21:57:31.724Z,51.50
2018-07-01T21:59:59.931Z,50.80
2018-07-01T22:02:28.107Z,50.80
2018-07-01T22:04:56.270Z,50.70
2018-07-01T22:07:24.438Z,50.80
2018-07-01T22:09:52.612Z,51.00
2018-07-01T22:12:32.225Z,51.30
2018-07-01T22:15:16.344Z,51.60
2018-07-01T22:17:44.498Z,51.00
2018-07-01T22:20:12.678Z,51.30
2018-07-01T22:22:40.836Z,51.70
2018-07-01T22:25:09.008Z,50.70
2018-07-01T22:27:37.260Z,50.60
2018-07-01T22:30:05.421Z,50.80
2018-07-01T22:32:33.586Z,51.70
2018-07-01T22:37:29.659Z,55.70
2018-07-01T22:39:57.847Z,55.60
2018-07-01T22:42:25.996Z,55.50
2018-07-01T22:44:54.186Z,54.30
2018-07-01T22:47:22.360Z,53.50
2018-07-01T22:49:50.521Z,53.70
2018-07-01T22:52:18.675Z,54.30
2018-07-01T22:54:46.859Z,53.90
2018-07-01T22:57:15.081Z,54.30
2018-07-01T22:59:43.230Z,54.30
2018-07-01T23:03:16.254Z,53.40
2018-07-01T23:08:12.356Z,53.00
2018-07-01T23:10:40.527Z,53.70
2018-07-01T23:13:08.681Z,54.50
2018-07-01T23:15:36.849Z,55.60
2018-07-01T23:18:05.142Z,56.30
2018-07-01T23:20:33.317Z,56.80
2018-07-01T23:23:01.471Z,57.60
2018-07-01T23:25:29.628Z,58.40
2018-07-01T23:31:00.725Z,59.40
2018-07-01T23:33:28.888Z,60.00
2018-07-01T23:35:57.037Z,61.00
2018-07-01T23:38:25.138Z,61.60
2018-07-01T23:40:53.273Z,61.80
2018-07-01T23:43:22.446Z,62.50
2018-07-01T23:45:50.553Z,63.70
2018-07-01T23:48:18.666Z,65.40
2018-07-01T23:50:46.780Z,67.50
2018-07-01T23:53:14.906Z,67.80
2018-07-01T23:55:43.017Z,68.40
2018-07-01T23:58:11.182Z,68.60
